sensor_id;sensor_type;location;lat;lon;timestamp;temperature;humidity
21895;DHT22;11112;51.270;7.224;2024-01-10T00:01:16;-0.20;85.80
21895;DHT22;11112;51.270;7.224;2024-01-10T00:03:44;-0.30;85.40
21895;DHT22;11112;51.270;7.224;2024-01-10T00:06:11;-0.30;85.80
21895;DHT22;11112;51.270;7.224;2024-01-10T00:08:38;-0.20;86.10
21895;DHT22;11112;51.270;7.224;2024-01-10T00:11:06;-0.20;86.30
21895;DHT22;11112;51.270;7.224;2024-01-10T00:13:33;-0.20;86.30
21895;DHT22;11112;51.270;7.224;2024-01-10T00:16:00;-0.20;86.40
21895;DHT22;11112;51.270;7.224;2024-01-10T00:18:27;-0.20;85.90
21895;DHT22;11112;51.270;7.224;2024-01-10T00:20:54;-0.30;86.00
21895;DHT22;11112;51.270;7.224;2024-01-10T00:23:21;-0.20;85.80
21895;DHT22;11112;51.270;7.224;2024-01-10T00:25:49;-0.20;86.00
21895;DHT22;11112;51.270;7.224;2024-01-10T00:28:17;-0.10;86.90
21895;DHT22;11112;51.270;7.224;2024-01-10T00:30:44;-0.20;86.30
21895;DHT22;11112;51.270;7.224;2024-01-10T00:33:13;-0.20;85.50
21895;DHT22;11112;51.270;7.224;2024-01-10T00:35:40;-0.30;86.70
21895;DHT22;11112;51.270;7.224;2024-01-10T00:38:07;-0.30;86.20
21895;DHT22;11112;51.270;7.224;2024-01-10T00:40:34;-0.30;86.40
21895;DHT22;11112;51.270;7.224;2024-01-10T00:43:01;-0.30;86.60
21895;DHT22;11112;51.270;7.224;2024-01-10T00:45:30;-0.30;87.00
21895;DHT22;11112;51.270;7.224;2024-01-10T00:47:57;-0.20;87.10
21895;DHT22;11112;51.270;7.224;2024-01-10T00:50:24;-0.20;86.90
21895;DHT22;11112;51.270;7.224;2024-01-10T00:52:51;-0.20;87.40
21895;DHT22;11112;51.270;7.224;2024-01-10T00:55:19;-0.20;86.50
21895;DHT22;11112;51.270;7.224;2024-01-10T00:57:46;-0.20;86.60
21895;DHT22;11112;51.270;7.224;2024-01-10T01:00:14;-0.20;87.50
21895;DHT22;11112;51.270;7.224;2024-01-10T01:02:43;-0.10;87.40
21895;DHT22;11112;51.270;7.224;2024-01-10T01:05:10;-0.20;86.50
21895;DHT22;11112;51.270;7.224;2024-01-10T01:07:37;-0.20;86.80
21895;DHT22;11112;51.270;7.224;2024-01-10T01:10:05;-0.20;86.80
21895;DHT22;11112;51.270;7.224;2024-01-10T01:12:34;-0.20;86.30
21895;DHT22;11112;51.270;7.224;2024-01-10T01:15:01;-0.20;85.60
21895;DHT22;11112;51.270;7.224;2024-01-10T01:17:28;-0.10;86.50
21895;DHT22;11112;51.270;7.224;2024-01-10T01:19:56;-0.20;85.50
21895;DHT22;11112;51.270;7.224;2024-01-10T01:22:23;-0.20;84.80
21895;DHT22;11112;51.270;7.224;2024-01-10T01:24:50;-0.20;85.20
21895;DHT22;11112;51.270;7.224;2024-01-10T01:27:18;-0.30;84.70
21895;DHT22;11112;51.270;7.224;2024-01-10T01:29:45;-0.30;85.00
21895;DHT22;11112;51.270;7.224;2024-01-10T01:32:12;-0.40;85.70
21895;DHT22;11112;51.270;7.224;2024-01-10T01:34:39;-0.30;85.60
21895;DHT22;11112;51.270;7.224;2024-01-10T01:37:07;-0.30;85.40
21895;DHT22;11112;51.270;7.224;2024-01-10T01:39:35;-0.30;85.80
21895;DHT22;11112;51.270;7.224;2024-01-10T01:42:02;-0.30;86.20
21895;DHT22;11112;51.270;7.224;2024-01-10T01:44:29;-0.30;84.80
21895;DHT22;11112;51.270;7.224;2024-01-10T01:46:57;-0.30;84.50
21895;DHT22;11112;51.270;7.224;2024-01-10T01:49:24;-0.30;84.80
21895;DHT22;11112;51.270;7.224;2024-01-10T01:51:52;-0.30;84.90
21895;DHT22;11112;51.270;7.224;2024-01-10T01:54:21;-0.30;84.70
21895;DHT22;11112;51.270;7.224;2024-01-10T01:56:49;-0.30;85.40
21895;DHT22;11112;51.270;7.224;2024-01-10T01:59:16;-0.30;85.20
21895;DHT22;11112;51.270;7.224;2024-01-10T02:01:43;-0.30;85.00
21895;DHT22;11112;51.270;7.224;2024-01-10T02:04:10;-0.30;84.30
21895;DHT22;11112;51.270;7.224;2024-01-10T02:06:38;-0.30;85.40
21895;DHT22;11112;51.270;7.224;2024-01-10T02:09:05;-0.30;85.30
21895;DHT22;11112;51.270;7.224;2024-01-10T02:11:35;-0.20;84.70
21895;DHT22;11112;51.270;7.224;2024-01-10T02:14:02;-0.40;84.90
21895;DHT22;11112;51.270;7.224;2024-01-10T02:16:30;-0.40;84.70
21895;DHT22;11112;51.270;7.224;2024-01-10T02:18:57;-0.40;85.10
21895;DHT22;11112;51.270;7.224;2024-01-10T02:21:25;-0.40;86.70
21895;DHT22;11112;51.270;7.224;2024-01-10T02:23:52;-0.40;85.30
21895;DHT22;11112;51.270;7.224;2024-01-10T02:26:21;-0.40;85.10
21895;DHT22;11112;51.270;7.224;2024-01-10T02:28:48;-0.40;85.30
21895;DHT22;11112;51.270;7.224;2024-01-10T02:31:15;-0.40;85.20
21895;DHT22;11112;51.270;7.224;2024-01-10T02:33:42;-0.40;85.10
21895;DHT22;11112;51.270;7.224;2024-01-10T02:36:09;-0.40;85.70
21895;DHT22;11112;51.270;7.224;2024-01-10T02:38:36;-0.40;86.50
21895;DHT22;11112;51.270;7.224;2024-01-10T02:41:03;-0.40;86.70
21895;DHT22;11112;51.270;7.224;2024-01-10T02:43:31;-0.30;85.40
21895;DHT22;11112;51.270;7.224;2024-01-10T02:45:58;-0.30;86.30
21895;DHT22;11112;51.270;7.224;2024-01-10T02:48:25;-0.40;85.20
21895;DHT22;11112;51.270;7.224;2024-01-10T02:50:52;-0.40;84.50
21895;DHT22;11112;51.270;7.224;2024-01-10T02:53:21;-0.40;84.60
21895;DHT22;11112;51.270;7.224;2024-01-10T02:55:48;-0.50;84.70
21895;DHT22;11112;51.270;7.224;2024-01-10T02:58:15;-0.50;84.70
21895;DHT22;11112;51.270;7.224;2024-01-10T03:00:44;-0.40;84.60
21895;DHT22;11112;51.270;7.224;2024-01-10T03:03:11;-0.40;85.20
21895;DHT22;11112;51.270;7.224;2024-01-10T03:05:38;-0.40;84.80
21895;DHT22;11112;51.270;7.224;2024-01-10T03:08:05;-0.40;84.60
21895;DHT22;11112;51.270;7.224;2024-01-10T03:10:33;-0.40;84.90
21895;DHT22;11112;51.270;7.224;2024-01-10T03:13:00;-0.40;85.10
21895;DHT22;11112;51.270;7.224;2024-01-10T03:15:27;-0.40;84.40
21895;DHT22;11112;51.270;7.224;2024-01-10T03:17:55;-0.40;84.80
21895;DHT22;11112;51.270;7.224;2024-01-10T03:20:22;-0.40;84.80
21895;DHT22;11112;51.270;7.224;2024-01-10T03:22:49;-0.40;84.70
21895;DHT22;11112;51.270;7.224;2024-01-10T03:25:16;-0.50;85.10
21895;DHT22;11112;51.270;7.224;2024-01-10T03:27:43;-0.50;85.10
21895;DHT22;11112;51.270;7.224;2024-01-10T03:30:11;-0.50;85.00
21895;DHT22;11112;51.270;7.224;2024-01-10T03:32:38;-0.50;84.90
21895;DHT22;11112;51.270;7.224;2024-01-10T03:35:07;-0.50;85.90
21895;DHT22;11112;51.270;7.224;2024-01-10T03:37:35;-0.50;86.80
21895;DHT22;11112;51.270;7.224;2024-01-10T03:40:02;-0.50;85.70
21895;DHT22;11112;51.270;7.224;2024-01-10T03:42:29;-0.60;84.00
21895;DHT22;11112;51.270;7.224;2024-01-10T03:44:56;-0.70;84.60
21895;DHT22;11112;51.270;7.224;2024-01-10T03:47:23;-0.60;85.20
21895;DHT22;11112;51.270;7.224;2024-01-10T03:49:50;-0.70;84.30
21895;DHT22;11112;51.270;7.224;2024-01-10T03:52:18;-0.70;85.30
21895;DHT22;11112;51.270;7.224;2024-01-10T03:54:45;-0.70;84.50
21895;DHT22;11112;51.270;7.224;2024-01-10T03:57:12;-0.70;83.70
21895;DHT22;11112;51.270;7.224;2024-01-10T03:59:39;-0.70;83.80
21895;DHT22;11112;51.270;7.224;2024-01-10T04:02:06;-0.70;85.30
21895;DHT22;11112;51.270;7.224;2024-01-10T04:04:36;-0.60;85.00
21895;DHT22;11112;51.270;7.224;2024-01-10T04:07:04;-0.60;84.40
21895;DHT22;11112;51.270;7.224;2024-01-10T04:09:34;-0.60;85.30
21895;DHT22;11112;51.270;7.224;2024-01-10T04:12:00;-0.70;83.50
21895;DHT22;11112;51.270;7.224;2024-01-10T04:14:28;-0.70;83.60
21895;DHT22;11112;51.270;7.224;2024-01-10T04:16:55;-0.70;83.70
21895;DHT22;11112;51.270;7.224;2024-01-10T04:19:22;-0.70;83.90
21895;DHT22;11112;51.270;7.224;2024-01-10T04:21:49;-0.70;84.60
21895;DHT22;11112;51.270;7.224;2024-01-10T04:24:16;-0.60;84.00
21895;DHT22;11112;51.270;7.224;2024-01-10T04:26:44;-0.60;84.80
21895;DHT22;11112;51.270;7.224;2024-01-10T04:29:11;-0.60;85.30
21895;DHT22;11112;51.270;7.224;2024-01-10T04:31:38;-0.60;85.20
21895;DHT22;11112;51.270;7.224;2024-01-10T04:34:05;-0.60;86.20
21895;DHT22;11112;51.270;7.224;2024-01-10T04:36:32;-0.60;85.60
21895;DHT22;11112;51.270;7.224;2024-01-10T04:38:59;-0.60;84.80
21895;DHT22;11112;51.270;7.224;2024-01-10T04:41:26;-0.60;85.60
21895;DHT22;11112;51.270;7.224;2024-01-10T04:43:54;-0.60;85.10
21895;DHT22;11112;51.270;7.224;2024-01-10T04:46:21;-0.60;85.00
21895;DHT22;11112;51.270;7.224;2024-01-10T04:48:48;-0.60;84.40
21895;DHT22;11112;51.270;7.224;2024-01-10T04:51:15;-0.60;84.60
21895;DHT22;11112;51.270;7.224;2024-01-10T04:53:42;-0.60;84.60
21895;DHT22;11112;51.270;7.224;2024-01-10T04:56:09;-0.60;84.60
21895;DHT22;11112;51.270;7.224;2024-01-10T04:58:36;-0.60;85.10
21895;DHT22;11112;51.270;7.224;2024-01-10T05:01:05;-0.60;84.60
21895;DHT22;11112;51.270;7.224;2024-01-10T05:03:32;-0.60;84.60
21895;DHT22;11112;51.270;7.224;2024-01-10T05:05:59;-0.60;85.00
21895;DHT22;11112;51.270;7.224;2024-01-10T05:08:26;-0.60;84.80
21895;DHT22;11112;51.270;7.224;2024-01-10T05:10:53;-0.70;84.00
21895;DHT22;11112;51.270;7.224;2024-01-10T05:13:20;-0.70;84.30
21895;DHT22;11112;51.270;7.224;2024-01-10T05:15:47;-0.70;85.00
21895;DHT22;11112;51.270;7.224;2024-01-10T05:18:15;-0.70;84.10
21895;DHT22;11112;51.270;7.224;2024-01-10T05:20:43;-0.80;84.20
21895;DHT22;11112;51.270;7.224;2024-01-10T05:23:14;-0.70;85.40
21895;DHT22;11112;51.270;7.224;2024-01-10T05:25:55;-0.70;85.90
21895;DHT22;11112;51.270;7.224;2024-01-10T05:31:25;-0.70;84.90
21895;DHT22;11112;51.270;7.224;2024-01-10T05:32:21;-0.70;86.10
21895;DHT22;11112;51.270;7.224;2024-01-10T05:35:13;-0.70;85.00
21895;DHT22;11112;51.270;7.224;2024-01-10T05:37:59;-0.60;85.70
21895;DHT22;11112;51.270;7.224;2024-01-10T05:40:26;-0.70;85.80
21895;DHT22;11112;51.270;7.224;2024-01-10T05:42:55;-0.70;85.30
21895;DHT22;11112;51.270;7.224;2024-01-10T05:45:24;-0.70;85.60
21895;DHT22;11112;51.270;7.224;2024-01-10T05:47:51;-0.70;86.30
21895;DHT22;11112;51.270;7.224;2024-01-10T05:50:26;-0.70;85.00
21895;DHT22;11112;51.270;7.224;2024-01-10T05:52:53;-0.80;85.00
21895;DHT22;11112;51.270;7.224;2024-01-10T05:55:25;-0.80;86.00
21895;DHT22;11112;51.270;7.224;2024-01-10T05:57:53;-0.80;85.50
21895;DHT22;11112;51.270;7.224;2024-01-10T06:00:22;-0.80;84.70
21895;DHT22;11112;51.270;7.224;2024-01-10T06:02:49;-0.80;86.30
21895;DHT22;11112;51.270;7.224;2024-01-10T06:05:16;-0.80;85.60
21895;DHT22;11112;51.270;7.224;2024-01-10T06:07:44;-0.80;86.10
21895;DHT22;11112;51.270;7.224;2024-01-10T06:10:11;-0.90;87.10
21895;DHT22;11112;51.270;7.224;2024-01-10T06:12:38;-0.80;88.20
21895;DHT22;11112;51.270;7.224;2024-01-10T06:15:07;-0.70;87.40
21895;DHT22;11112;51.270;7.224;2024-01-10T06:17:34;-0.70;87.00
21895;DHT22;11112;51.270;7.224;2024-01-10T06:20:01;-0.70;87.50
21895;DHT22;11112;51.270;7.224;2024-01-10T06:22:29;-0.70;86.40
21895;DHT22;11112;51.270;7.224;2024-01-10T06:24:57;-0.70;86.00
21895;DHT22;11112;51.270;7.224;2024-01-10T06:27:24;-0.70;86.70
21895;DHT22;11112;51.270;7.224;2024-01-10T06:29:51;-0.70;86.30
21895;DHT22;11112;51.270;7.224;2024-01-10T06:32:18;-0.70;86.20
21895;DHT22;11112;51.270;7.224;2024-01-10T06:34:45;-0.70;87.70
21895;DHT22;11112;51.270;7.224;2024-01-10T06:37:12;-0.70;88.30
21895;DHT22;11112;51.270;7.224;2024-01-10T06:39:39;-0.70;88.50
21895;DHT22;11112;51.270;7.224;2024-01-10T06:42:10;-0.80;88.90
21895;DHT22;11112;51.270;7.224;2024-01-10T06:44:37;-0.80;88.80
21895;DHT22;11112;51.270;7.224;2024-01-10T06:47:04;-0.90;88.60
21895;DHT22;11112;51.270;7.224;2024-01-10T06:49:32;-0.90;88.60
21895;DHT22;11112;51.270;7.224;2024-01-10T06:51:59;-0.90;89.00
21895;DHT22;11112;51.270;7.224;2024-01-10T06:54:26;-0.90;88.40
21895;DHT22;11112;51.270;7.224;2024-01-10T06:56:53;-0.90;87.90
21895;DHT22;11112;51.270;7.224;2024-01-10T06:59:21;-0.80;88.60
21895;DHT22;11112;51.270;7.224;2024-01-10T07:01:51;-0.80;88.30
21895;DHT22;11112;51.270;7.224;2024-01-10T07:04:18;-0.80;87.50
21895;DHT22;11112;51.270;7.224;2024-01-10T07:06:47;-0.80;88.10
21895;DHT22;11112;51.270;7.224;2024-01-10T07:09:14;-0.80;88.00
21895;DHT22;11112;51.270;7.224;2024-01-10T07:11:45;-0.80;87.60
21895;DHT22;11112;51.270;7.224;2024-01-10T07:14:13;-1.00;86.70
21895;DHT22;11112;51.270;7.224;2024-01-10T07:16:42;-1.00;87.60
21895;DHT22;11112;51.270;7.224;2024-01-10T07:19:11;-0.90;88.00
21895;DHT22;11112;51.270;7.224;2024-01-10T07:21:39;-0.80;88.00
21895;DHT22;11112;51.270;7.224;2024-01-10T07:24:06;-0.90;87.00
21895;DHT22;11112;51.270;7.224;2024-01-10T07:26:34;-0.90;87.50
21895;DHT22;11112;51.270;7.224;2024-01-10T07:29:01;-0.90;87.20
21895;DHT22;11112;51.270;7.224;2024-01-10T07:31:28;-0.90;87.90
21895;DHT22;11112;51.270;7.224;2024-01-10T07:33:57;-0.90;87.70
21895;DHT22;11112;51.270;7.224;2024-01-10T07:36:24;-0.80;87.40
21895;DHT22;11112;51.270;7.224;2024-01-10T07:38:52;-0.80;87.70
21895;DHT22;11112;51.270;7.224;2024-01-10T07:41:19;-0.80;87.70
21895;DHT22;11112;51.270;7.224;2024-01-10T07:43:46;-0.90;87.30
21895;DHT22;11112;51.270;7.224;2024-01-10T07:46:13;-0.90;87.20
21895;DHT22;11112;51.270;7.224;2024-01-10T07:48:40;-0.80;87.30
21895;DHT22;11112;51.270;7.224;2024-01-10T07:51:08;-0.80;87.10
21895;DHT22;11112;51.270;7.224;2024-01-10T07:53:36;-0.90;86.40
21895;DHT22;11112;51.270;7.224;2024-01-10T07:56:03;-0.90;87.60
21895;DHT22;11112;51.270;7.224;2024-01-10T07:58:31;-0.80;87.90
21895;DHT22;11112;51.270;7.224;2024-01-10T08:00:58;-0.90;87.30
21895;DHT22;11112;51.270;7.224;2024-01-10T08:03:25;-0.90;87.40
21895;DHT22;11112;51.270;7.224;2024-01-10T08:05:52;-0.90;88.10
21895;DHT22;11112;51.270;7.224;2024-01-10T08:08:20;-0.90;87.70
21895;DHT22;11112;51.270;7.224;2024-01-10T08:10:47;-0.90;87.40
21895;DHT22;11112;51.270;7.224;2024-01-10T08:13:14;-0.80;87.80
21895;DHT22;11112;51.270;7.224;2024-01-10T08:15:41;-0.80;88.80
21895;DHT22;11112;51.270;7.224;2024-01-10T08:18:08;-0.80;88.80
21895;DHT22;11112;51.270;7.224;2024-01-10T08:20:35;-0.80;89.30
21895;DHT22;11112;51.270;7.224;2024-01-10T08:23:03;-0.80;88.60
21895;DHT22;11112;51.270;7.224;2024-01-10T08:25:31;-0.80;88.20
21895;DHT22;11112;51.270;7.224;2024-01-10T08:27:58;-0.80;88.80
21895;DHT22;11112;51.270;7.224;2024-01-10T08:30:26;-0.80;88.60
21895;DHT22;11112;51.270;7.224;2024-01-10T08:32:53;-0.80;88.20
21895;DHT22;11112;51.270;7.224;2024-01-10T08:35:20;-0.80;88.80
21895;DHT22;11112;51.270;7.224;2024-01-10T08:37:47;-0.80;89.30
21895;DHT22;11112;51.270;7.224;2024-01-10T08:40:13;-0.80;88.40
21895;DHT22;11112;51.270;7.224;2024-01-10T08:42:43;-0.90;88.10
21895;DHT22;11112;51.270;7.224;2024-01-10T08:45:10;-0.90;89.00
21895;DHT22;11112;51.270;7.224;2024-01-10T08:47:38;-0.80;89.00
21895;DHT22;11112;51.270;7.224;2024-01-10T08:50:06;-0.80;88.70
21895;DHT22;11112;51.270;7.224;2024-01-10T08:52:35;-0.80;89.40
21895;DHT22;11112;51.270;7.224;2024-01-10T08:55:04;-0.80;89.50
21895;DHT22;11112;51.270;7.224;2024-01-10T08:57:31;-0.80;89.70
21895;DHT22;11112;51.270;7.224;2024-01-10T09:00:00;-0.80;90.30
21895;DHT22;11112;51.270;7.224;2024-01-10T09:02:31;-0.90;89.60
21895;DHT22;11112;51.270;7.224;2024-01-10T09:04:58;-0.90;89.20
21895;DHT22;11112;51.270;7.224;2024-01-10T09:07:26;-0.90;89.80
21895;DHT22;11112;51.270;7.224;2024-01-10T09:09:53;-0.90;90.40
21895;DHT22;11112;51.270;7.224;2024-01-10T09:12:20;-0.80;90.10
21895;DHT22;11112;51.270;7.224;2024-01-10T09:14:47;-0.80;89.40
21895;DHT22;11112;51.270;7.224;2024-01-10T09:17:15;-0.80;88.90
21895;DHT22;11112;51.270;7.224;2024-01-10T09:19:42;-0.80;88.40
21895;DHT22;11112;51.270;7.224;2024-01-10T09:22:09;-0.80;88.80
21895;DHT22;11112;51.270;7.224;2024-01-10T09:24:36;-0.80;89.40
21895;DHT22;11112;51.270;7.224;2024-01-10T09:27:03;-0.80;89.00
21895;DHT22;11112;51.270;7.224;2024-01-10T09:33:14;-0.80;90.00
21895;DHT22;11112;51.270;7.224;2024-01-10T09:35:41;-0.70;89.60
21895;DHT22;11112;51.270;7.224;2024-01-10T09:38:08;-0.70;89.20
21895;DHT22;11112;51.270;7.224;2024-01-10T09:40:35;-0.60;89.00
21895;DHT22;11112;51.270;7.224;2024-01-10T09:43:04;-0.60;89.20
21895;DHT22;11112;51.270;7.224;2024-01-10T09:45:35;-0.60;88.90
21895;DHT22;11112;51.270;7.224;2024-01-10T09:48:03;-0.50;89.60
21895;DHT22;11112;51.270;7.224;2024-01-10T09:50:32;-0.50;89.10
21895;DHT22;11112;51.270;7.224;2024-01-10T09:53:05;-0.60;89.00
21895;DHT22;11112;51.270;7.224;2024-01-10T09:55:34;-0.50;89.30
21895;DHT22;11112;51.270;7.224;2024-01-10T09:58:04;-0.50;90.10
21895;DHT22;11112;51.270;7.224;2024-01-10T10:00:34;-0.40;90.00
21895;DHT22;11112;51.270;7.224;2024-01-10T10:03:02;-0.40;89.70
21895;DHT22;11112;51.270;7.224;2024-01-10T10:05:33;-0.30;90.20
21895;DHT22;11112;51.270;7.224;2024-01-10T10:08:00;-0.30;89.80
21895;DHT22;11112;51.270;7.224;2024-01-10T10:10:28;-0.30;89.90
21895;DHT22;11112;51.270;7.224;2024-01-10T10:12:55;-0.30;89.70
21895;DHT22;11112;51.270;7.224;2024-01-10T10:15:23;-0.30;89.60
21895;DHT22;11112;51.270;7.224;2024-01-10T10:17:52;-0.20;89.30
21895;DHT22;11112;51.270;7.224;2024-01-10T10:20:21;-0.10;90.00
21895;DHT22;11112;51.270;7.224;2024-01-10T10:23:01;-0.10;89.80
21895;DHT22;11112;51.270;7.224;2024-01-10T10:25:29;0.00;89.10
21895;DHT22;11112;51.270;7.224;2024-01-10T10:27:58;0.00;89.30
21895;DHT22;11112;51.270;7.224;2024-01-10T10:30:25;0.10;89.90
21895;DHT22;11112;51.270;7.224;2024-01-10T10:32:52;0.10;89.50
21895;DHT22;11112;51.270;7.224;2024-01-10T10:35:19;0.20;89.30
21895;DHT22;11112;51.270;7.224;2024-01-10T10:37:48;0.20;90.00
21895;DHT22;11112;51.270;7.224;2024-01-10T10:40:17;0.20;89.40
21895;DHT22;11112;51.270;7.224;2024-01-10T10:42:46;0.30;89.30
21895;DHT22;11112;51.270;7.224;2024-01-10T10:45:16;0.30;89.70
21895;DHT22;11112;51.270;7.224;2024-01-10T10:47:45;0.40;89.90
21895;DHT22;11112;51.270;7.224;2024-01-10T10:50:20;0.40;88.60
21895;DHT22;11112;51.270;7.224;2024-01-10T10:52:49;0.40;89.40
21895;DHT22;11112;51.270;7.224;2024-01-10T10:55:18;0.40;88.70
21895;DHT22;11112;51.270;7.224;2024-01-10T10:57:47;0.40;87.70
21895;DHT22;11112;51.270;7.224;2024-01-10T11:00:18;0.40;87.70
21895;DHT22;11112;51.270;7.224;2024-01-10T11:02:47;0.40;87.70
21895;DHT22;11112;51.270;7.224;2024-01-10T11:05:15;0.50;87.70
21895;DHT22;11112;51.270;7.224;2024-01-10T11:07:43;0.50;88.20
21895;DHT22;11112;51.270;7.224;2024-01-10T11:10:13;0.60;89.40
21895;DHT22;11112;51.270;7.224;2024-01-10T11:13:03;0.60;88.90
21895;DHT22;11112;51.270;7.224;2024-01-10T11:19:43;0.70;89.70
21895;DHT22;11112;51.270;7.224;2024-01-10T11:22:36;0.80;89.40
21895;DHT22;11112;51.270;7.224;2024-01-10T11:25:10;0.80;89.20
21895;DHT22;11112;51.270;7.224;2024-01-10T11:27:37;0.80;89.80
21895;DHT22;11112;51.270;7.224;2024-01-10T11:30:07;0.90;89.50
21895;DHT22;11112;51.270;7.224;2024-01-10T11:32:36;0.90;89.60
21895;DHT22;11112;51.270;7.224;2024-01-10T11:35:05;0.90;90.10
21895;DHT22;11112;51.270;7.224;2024-01-10T11:37:39;0.90;89.20
21895;DHT22;11112;51.270;7.224;2024-01-10T11:40:08;0.90;87.00
21895;DHT22;11112;51.270;7.224;2024-01-10T11:42:42;0.90;88.10
21895;DHT22;11112;51.270;7.224;2024-01-10T11:45:11;0.90;88.50
21895;DHT22;11112;51.270;7.224;2024-01-10T11:47:59;1.00;88.20
21895;DHT22;11112;51.270;7.224;2024-01-10T11:50:27;1.00;89.10
21895;DHT22;11112;51.270;7.224;2024-01-10T11:52:56;1.00;89.50
21895;DHT22;11112;51.270;7.224;2024-01-10T11:55:47;1.10;89.30
21895;DHT22;11112;51.270;7.224;2024-01-10T11:58:16;1.10;89.40
21895;DHT22;11112;51.270;7.224;2024-01-10T12:00:46;1.10;89.70
21895;DHT22;11112;51.270;7.224;2024-01-10T12:03:14;1.10;89.60
21895;DHT22;11112;51.270;7.224;2024-01-10T12:05:42;1.10;89.40
21895;DHT22;11112;51.270;7.224;2024-01-10T12:08:10;1.10;89.60
21895;DHT22;11112;51.270;7.224;2024-01-10T12:10:37;1.20;89.20
21895;DHT22;11112;51.270;7.224;2024-01-10T12:13:04;1.20;89.40
21895;DHT22;11112;51.270;7.224;2024-01-10T12:15:32;1.20;89.20
21895;DHT22;11112;51.270;7.224;2024-01-10T12:18:01;1.20;88.80
21895;DHT22;11112;51.270;7.224;2024-01-10T12:20:28;1.20;88.30
21895;DHT22;11112;51.270;7.224;2024-01-10T12:22:55;1.30;87.40
21895;DHT22;11112;51.270;7.224;2024-01-10T12:25:22;1.30;87.70
21895;DHT22;11112;51.270;7.224;2024-01-10T12:27:49;1.30;87.70
21895;DHT22;11112;51.270;7.224;2024-01-10T12:30:16;1.30;88.20
21895;DHT22;11112;51.270;7.224;2024-01-10T12:32:43;1.30;87.90
21895;DHT22;11112;51.270;7.224;2024-01-10T12:35:12;1.30;86.70
21895;DHT22;11112;51.270;7.224;2024-01-10T12:37:39;1.30;87.00
21895;DHT22;11112;51.270;7.224;2024-01-10T12:40:08;1.30;87.00
21895;DHT22;11112;51.270;7.224;2024-01-10T12:42:37;1.30;86.20
21895;DHT22;11112;51.270;7.224;2024-01-10T12:45:04;1.30;86.90
21895;DHT22;11112;51.270;7.224;2024-01-10T12:47:34;1.40;86.70
21895;DHT22;11112;51.270;7.224;2024-01-10T12:50:01;1.40;87.10
21895;DHT22;11112;51.270;7.224;2024-01-10T12:52:30;1.40;87.30
21895;DHT22;11112;51.270;7.224;2024-01-10T12:54:57;1.40;87.70
21895;DHT22;11112;51.270;7.224;2024-01-10T12:57:24;1.40;87.30
21895;DHT22;11112;51.270;7.224;2024-01-10T12:59:51;1.40;87.30
21895;DHT22;11112;51.270;7.224;2024-01-10T13:02:18;1.30;87.30
21895;DHT22;11112;51.270;7.224;2024-01-10T13:04:45;1.40;87.30
21895;DHT22;11112;51.270;7.224;2024-01-10T13:07:12;1.30;87.20
21895;DHT22;11112;51.270;7.224;2024-01-10T13:09:41;1.30;87.30
21895;DHT22;11112;51.270;7.224;2024-01-10T13:12:08;1.20;87.80
21895;DHT22;11112;51.270;7.224;2024-01-10T13:14:35;1.20;88.40
21895;DHT22;11112;51.270;7.224;2024-01-10T13:17:02;1.20;88.50
21895;DHT22;11112;51.270;7.224;2024-01-10T13:19:30;1.20;89.20
21895;DHT22;11112;51.270;7.224;2024-01-10T13:21:57;1.20;89.20
21895;DHT22;11112;51.270;7.224;2024-01-10T13:24:24;1.30;89.50
21895;DHT22;11112;51.270;7.224;2024-01-10T13:26:52;1.30;89.40
21895;DHT22;11112;51.270;7.224;2024-01-10T13:29:19;1.30;89.50
21895;DHT22;11112;51.270;7.224;2024-01-10T13:31:46;1.30;89.30
21895;DHT22;11112;51.270;7.224;2024-01-10T13:34:14;1.30;89.40
21895;DHT22;11112;51.270;7.224;2024-01-10T13:36:41;1.20;89.40
21895;DHT22;11112;51.270;7.224;2024-01-10T13:39:08;1.30;89.60
21895;DHT22;11112;51.270;7.224;2024-01-10T13:41:40;1.30;90.00
21895;DHT22;11112;51.270;7.224;2024-01-10T13:44:09;1.30;89.90
21895;DHT22;11112;51.270;7.224;2024-01-10T13:46:36;1.30;89.70
21895;DHT22;11112;51.270;7.224;2024-01-10T13:49:03;1.30;89.40
21895;DHT22;11112;51.270;7.224;2024-01-10T13:51:31;1.30;90.10
21895;DHT22;11112;51.270;7.224;2024-01-10T13:53:58;1.30;89.80
21895;DHT22;11112;51.270;7.224;2024-01-10T13:56:25;1.20;88.90
21895;DHT22;11112;51.270;7.224;2024-01-10T13:58:53;1.20;89.90
21895;DHT22;11112;51.270;7.224;2024-01-10T14:01:21;1.20;89.20
21895;DHT22;11112;51.270;7.224;2024-01-10T14:03:48;1.20;89.40
21895;DHT22;11112;51.270;7.224;2024-01-10T14:06:15;1.30;89.00
21895;DHT22;11112;51.270;7.224;2024-01-10T14:08:42;1.20;88.70
21895;DHT22;11112;51.270;7.224;2024-01-10T14:11:13;1.20;88.80
21895;DHT22;11112;51.270;7.224;2024-01-10T14:13:40;1.20;88.90
21895;DHT22;11112;51.270;7.224;2024-01-10T14:16:07;1.20;89.40
21895;DHT22;11112;51.270;7.224;2024-01-10T14:18:35;1.20;89.40
21895;DHT22;11112;51.270;7.224;2024-01-10T14:21:03;1.20;88.60
21895;DHT22;11112;51.270;7.224;2024-01-10T14:23:30;1.30;88.70
21895;DHT22;11112;51.270;7.224;2024-01-10T14:25:57;1.30;89.00
21895;DHT22;11112;51.270;7.224;2024-01-10T14:28:24;1.30;88.40
21895;DHT22;11112;51.270;7.224;2024-01-10T14:30:51;1.30;88.50
21895;DHT22;11112;51.270;7.224;2024-01-10T14:33:18;1.30;89.00
21895;DHT22;11112;51.270;7.224;2024-01-10T14:35:47;1.30;88.60
21895;DHT22;11112;51.270;7.224;2024-01-10T14:38:14;1.30;88.80
21895;DHT22;11112;51.270;7.224;2024-01-10T14:40:41;1.30;88.50
21895;DHT22;11112;51.270;7.224;2024-01-10T14:43:08;1.30;88.40
21895;DHT22;11112;51.270;7.224;2024-01-10T14:45:35;1.30;88.50
21895;DHT22;11112;51.270;7.224;2024-01-10T14:48:03;1.30;88.70
21895;DHT22;11112;51.270;7.224;2024-01-10T14:50:31;1.20;88.60
21895;DHT22;11112;51.270;7.224;2024-01-10T14:52:59;1.20;88.50
21895;DHT22;11112;51.270;7.224;2024-01-10T14:55:26;1.20;88.70
21895;DHT22;11112;51.270;7.224;2024-01-10T14:57:54;1.30;89.00
21895;DHT22;11112;51.270;7.224;2024-01-10T15:00:21;1.30;88.80
21895;DHT22;11112;51.270;7.224;2024-01-10T15:02:48;1.30;89.00
21895;DHT22;11112;51.270;7.224;2024-01-10T15:05:17;1.30;88.90
21895;DHT22;11112;51.270;7.224;2024-01-10T15:07:44;1.30;89.00
21895;DHT22;11112;51.270;7.224;2024-01-10T15:10:12;1.30;89.20
21895;DHT22;11112;51.270;7.224;2024-01-10T15:12:39;1.30;89.20
21895;DHT22;11112;51.270;7.224;2024-01-10T15:15:07;1.30;89.10
21895;DHT22;11112;51.270;7.224;2024-01-10T15:17:35;1.30;89.10
21895;DHT22;11112;51.270;7.224;2024-01-10T15:20:02;1.30;89.40
21895;DHT22;11112;51.270;7.224;2024-01-10T15:22:30;1.30;90.00
21895;DHT22;11112;51.270;7.224;2024-01-10T15:24:57;1.30;89.40
21895;DHT22;11112;51.270;7.224;2024-01-10T15:27:26;1.30;89.60
21895;DHT22;11112;51.270;7.224;2024-01-10T15:29:54;1.30;90.00
21895;DHT22;11112;51.270;7.224;2024-01-10T15:32:21;1.30;89.80
21895;DHT22;11112;51.270;7.224;2024-01-10T15:34:48;1.40;90.00
21895;DHT22;11112;51.270;7.224;2024-01-10T15:37:15;1.30;89.80
21895;DHT22;11112;51.270;7.224;2024-01-10T15:39:42;1.30;89.70
21895;DHT22;11112;51.270;7.224;2024-01-10T15:42:09;1.20;89.60
21895;DHT22;11112;51.270;7.224;2024-01-10T15:44:41;1.30;90.10
21895;DHT22;11112;51.270;7.224;2024-01-10T15:47:09;1.20;90.10
21895;DHT22;11112;51.270;7.224;2024-01-10T15:49:36;1.30;90.20